createdAt,value
2023-04-10T00:02:00.579Z,17.55
2023-04-10T00:04:28.522Z,14.88
2023-04-10T00:06:55.488Z,15.80
2023-04-10T00:09:22.130Z,15.57
2023-04-10T00:11:48.702Z,16.42
2023-04-10T00:14:15.325Z,15.27
2023-04-10T00:16:41.850Z,15.15
2023-04-10T00:19:08.642Z,14.23
2023-04-10T00:21:35.134Z,14.75
2023-04-10T00:24:01.691Z,15.82
2023-04-10T00:26:28.217Z,15.45
2023-04-10T00:28:54.686Z,14.32
2023-04-10T00:31:21.204Z,14.77
2023-04-10T00:33:47.684Z,15.75
2023-04-10T00:36:14.239Z,15.85
2023-04-10T00:38:40.713Z,14.98
2023-04-10T00:41:07.460Z,15.10
2023-04-10T00:43:33.966Z,13.97
2023-04-10T00:46:00.791Z,15.65
2023-04-10T00:48:27.662Z,15.05
2023-04-10T00:50:54.310Z,14.15
2023-04-10T00:53:22.069Z,14.68
2023-04-10T00:55:49.993Z,17.00
2023-04-10T00:58:16.692Z,14.68
2023-04-10T01:00:43.250Z,14.20
2023-04-10T01:03:12.737Z,13.70
2023-04-10T01:05:46.303Z,14.35
2023-04-10T01:08:22.839Z,14.03
2023-04-10T01:10:58.612Z,13.45
2023-04-10T01:13:32.979Z,14.15
2023-04-10T01:16:08.399Z,14.63
2023-04-10T01:18:54.008Z,13.80
2023-04-10T01:21:22.592Z,12.73
2023-04-10T01:24:21.655Z,14.73
2023-04-10T01:26:53.727Z,13.43
2023-04-10T01:29:21.253Z,14.60
2023-04-10T01:32:01.743Z,12.48
2023-04-10T01:34:36.071Z,12.80
2023-04-10T01:37:08.546Z,13.90
2023-04-10T01:39:39.367Z,13.45
2023-04-10T01:42:08.882Z,13.32
2023-04-10T01:44:38.077Z,13.38
2023-04-10T01:47:07.226Z,13.77
2023-04-10T01:49:35.383Z,16.90
2023-04-10T01:52:02.394Z,13.95
2023-04-10T01:54:31.591Z,12.07
2023-04-10T01:56:59.852Z,12.90
2023-04-10T01:59:26.821Z,11.97
2023-04-10T02:02:01.391Z,12.45
2023-04-10T02:04:28.288Z,12.52
2023-04-10T02:07:05.089Z,16.60
2023-04-10T02:09:50.276Z,12.32
2023-04-10T02:12:22.499Z,13.07
2023-04-10T02:14:50.643Z,12.77
2023-04-10T02:17:23.341Z,13.55
2023-04-10T02:19:53.182Z,11.85
2023-04-10T02:22:20.508Z,13.43
2023-04-10T02:24:47.335Z,12.97
2023-04-10T02:27:13.856Z,13.73
2023-04-10T02:29:40.452Z,13.30
2023-04-10T02:32:07.077Z,12.32
2023-04-10T02:34:33.536Z,12.95
2023-04-10T02:37:00.006Z,12.53
2023-04-10T02:39:26.517Z,12.77
2023-04-10T02:41:53.020Z,13.85
2023-04-10T02:44:19.530Z,12.77
2023-04-10T02:46:47.141Z,12.00
2023-04-10T02:49:14.020Z,12.37
2023-04-10T02:51:40.476Z,12.32
2023-04-10T02:54:06.897Z,12.48
2023-04-10T02:56:34.957Z,12.10
2023-04-10T02:59:01.595Z,12.43
2023-04-10T03:01:28.127Z,11.77
2023-04-10T03:03:54.928Z,12.35
2023-04-10T03:06:23.596Z,12.10
2023-04-10T03:08:50.133Z,14.55
2023-04-10T03:11:16.653Z,12.73
2023-04-10T03:13:43.104Z,12.67
2023-04-10T03:16:09.699Z,12.70
2023-04-10T03:18:36.563Z,12.65
2023-04-10T03:21:03.118Z,12.70
2023-04-10T03:23:29.553Z,11.57
2023-04-10T03:25:56.241Z,12.37
2023-04-10T03:28:22.819Z,11.93
2023-04-10T03:30:52.077Z,12.65
2023-04-10T03:33:18.587Z,12.50
2023-04-10T03:35:48.501Z,13.60
2023-04-10T03:38:15.042Z,13.67
2023-04-10T03:40:41.527Z,12.90
2023-04-10T03:43:08.107Z,12.45
2023-04-10T03:45:34.650Z,13.25
2023-04-10T03:48:01.173Z,12.65
2023-04-10T03:50:28.021Z,12.83
2023-04-10T03:52:54.563Z,11.25
2023-04-10T03:55:21.334Z,13.20
2023-04-10T03:57:48.653Z,12.13
2023-04-10T04:00:16.677Z,13.05
2023-04-10T04:02:43.463Z,12.57
2023-04-10T04:05:10.385Z,14.30
2023-04-10T04:07:36.933Z,12.82
2023-04-10T04:10:03.743Z,12.90
2023-04-10T04:12:30.381Z,13.27
2023-04-10T04:14:57.121Z,12.17
2023-04-10T04:17:23.632Z,12.60
2023-04-10T04:19:50.199Z,13.20
2023-04-10T04:22:16.898Z,13.10
2023-04-10T04:24:43.350Z,13.73
2023-04-10T04:27:09.806Z,12.83
2023-04-10T04:29:36.243Z,13.77
2023-04-10T04:32:02.725Z,14.27
2023-04-10T04:34:29.251Z,12.38
2023-04-10T04:36:55.747Z,12.77
2023-04-10T04:41:49.850Z,12.98
2023-04-10T04:44:16.321Z,12.23
2023-04-10T04:46:44.616Z,12.43
2023-04-10T04:49:11.496Z,13.27
2023-04-10T04:51:38.204Z,14.97
2023-04-10T04:54:05.274Z,14.23
2023-04-10T04:56:31.772Z,14.52
2023-04-10T04:58:58.245Z,13.15
2023-04-10T05:01:25.076Z,14.35
2023-04-10T05:03:51.679Z,13.17
2023-04-10T05:06:18.740Z,13.23
2023-04-10T05:08:45.329Z,14.07
2023-04-10T05:11:11.796Z,11.98
2023-04-10T05:13:38.285Z,13.05
2023-04-10T05:16:05.060Z,12.90
2023-04-10T05:18:31.698Z,13.15
2023-04-10T05:20:58.231Z,12.68
2023-04-10T05:23:24.685Z,13.20
2023-04-10T05:25:51.261Z,12.95
2023-04-10T05:28:17.747Z,14.20
2023-04-10T05:30:44.797Z,13.43
2023-04-10T05:33:11.362Z,15.13
2023-04-10T05:35:37.980Z,12.48
2023-04-10T05:38:04.566Z,14.15
2023-04-10T05:40:31.261Z,12.77
2023-04-10T05:42:58.928Z,12.80
2023-04-10T05:45:25.571Z,17.42
2023-04-10T05:47:52.037Z,13.32
2023-04-10T05:50:18.568Z,12.55
2023-04-10T05:52:46.664Z,12.80
2023-04-10T05:55:13.115Z,11.98
2023-04-10T05:57:39.819Z,11.13
2023-04-10T06:00:06.955Z,13.05
2023-04-10T06:02:33.694Z,13.10
2023-04-10T06:05:00.711Z,12.13
2023-04-10T06:07:27.795Z,11.98
2023-04-10T06:09:54.285Z,12.57
2023-04-10T06:12:20.810Z,13.32
2023-04-10T06:14:48.041Z,13.00
2023-04-10T06:17:14.490Z,11.60
2023-04-10T06:19:41.027Z,13.38
2023-04-10T06:22:07.465Z,14.00
2023-04-10T06:24:33.915Z,12.40
2023-04-10T06:27:00.882Z,11.02
2023-04-10T06:29:27.598Z,12.30
2023-04-10T06:31:54.167Z,12.52
2023-04-10T06:34:21.009Z,12.85
2023-04-10T06:36:47.486Z,11.98
2023-04-10T06:39:13.950Z,13.60
2023-04-10T06:41:40.476Z,11.77
2023-04-10T06:44:06.971Z,11.95
2023-04-10T06:46:33.586Z,12.32
2023-04-10T06:49:00.153Z,12.95
2023-04-10T06:51:27.755Z,15.07
2023-04-10T06:53:54.247Z,13.50
2023-04-10T06:56:21.083Z,11.77
2023-04-10T06:58:47.561Z,13.02
2023-04-10T07:01:14.216Z,13.32
2023-04-10T07:03:40.822Z,12.52
2023-04-10T07:06:08.394Z,12.10
2023-04-10T07:08:34.836Z,12.63
2023-04-10T07:11:01.347Z,12.70
2023-04-10T07:13:28.195Z,11.45
2023-04-10T07:15:54.799Z,13.00
2023-04-10T07:18:21.324Z,12.93
2023-04-10T07:20:48.537Z,12.32
2023-04-10T07:23:15.338Z,13.15
2023-04-10T07:25:42.702Z,12.73
2023-04-10T07:28:09.234Z,12.52
2023-04-10T07:30:35.835Z,15.63
2023-04-10T07:33:02.468Z,13.15
2023-04-10T07:35:29.100Z,17.38
2023-04-10T07:37:55.644Z,12.77
2023-04-10T07:40:22.104Z,15.73
2023-04-10T07:42:48.635Z,13.87
2023-04-10T07:45:15.159Z,13.70
2023-04-10T07:47:41.875Z,14.80
2023-04-10T07:50:08.868Z,12.90
2023-04-10T07:52:35.389Z,13.25
2023-04-10T07:55:03.448Z,12.17
2023-04-10T07:57:30.490Z,15.38
2023-04-10T07:59:57.135Z,13.07
2023-04-10T08:02:23.828Z,12.80
2023-04-10T08:04:50.649Z,14.52
2023-04-10T08:07:18.906Z,12.40
2023-04-10T08:09:45.351Z,11.68
2023-04-10T08:12:11.779Z,13.85
2023-04-10T08:14:38.262Z,14.15
2023-04-10T08:17:04.839Z,11.85
2023-04-10T08:19:31.323Z,13.37
2023-04-10T08:21:57.782Z,12.18
2023-04-10T08:24:24.376Z,12.13
2023-04-10T08:26:50.899Z,11.50
2023-04-10T08:29:17.382Z,11.38
2023-04-10T08:31:43.890Z,11.60
2023-04-10T08:34:10.577Z,10.63
2023-04-10T08:36:37.136Z,12.57
2023-04-10T08:39:03.615Z,12.05
2023-04-10T08:41:30.552Z,11.20
2023-04-10T08:43:57.500Z,10.73
2023-04-10T08:46:27.741Z,11.35
2023-04-10T08:49:02.102Z,12.23
2023-04-10T08:51:42.241Z,9.95
2023-04-10T08:54:17.539Z,9.43
2023-04-10T08:56:49.708Z,10.00
2023-04-10T08:59:16.472Z,9.63
2023-04-10T09:01:43.176Z,9.52
2023-04-10T09:04:12.214Z,9.45
2023-04-10T09:06:39.250Z,10.35
2023-04-10T09:09:09.583Z,10.40
2023-04-10T09:11:57.070Z,10.52
2023-04-10T09:14:32.149Z,9.38
2023-04-10T09:17:18.733Z,10.18
2023-04-10T09:19:47.741Z,9.73
2023-04-10T09:22:14.964Z,10.33
2023-04-10T09:24:43.798Z,10.88
2023-04-10T09:27:11.187Z,11.23
2023-04-10T09:29:45.857Z,19.05
2023-04-10T09:32:12.675Z,17.35
2023-04-10T09:34:57.228Z,10.43
2023-04-10T09:37:31.579Z,10.27
2023-04-10T09:39:58.112Z,10.85
2023-04-10T09:42:37.100Z,10.82
2023-04-10T09:45:05.223Z,12.52
2023-04-10T09:47:33.162Z,9.70
2023-04-10T09:50:01.212Z,10.60
2023-04-10T09:52:29.787Z,9.00
2023-04-10T09:55:07.641Z,10.90
2023-04-10T09:57:35.389Z,9.68
2023-04-10T10:00:05.184Z,10.83
2023-04-10T10:02:37.254Z,10.18
2023-04-10T10:05:05.430Z,9.80
2023-04-10T10:07:32.213Z,9.52
2023-04-10T10:10:00.616Z,9.82
2023-04-10T10:12:34.171Z,9.93
2023-04-10T10:15:28.830Z,9.68
2023-04-10T10:18:04.089Z,9.27
2023-04-10T10:20:32.863Z,8.80
2023-04-10T10:23:03.111Z,8.98
2023-04-10T10:25:31.531Z,9.27
2023-04-10T10:28:00.572Z,10.07
2023-04-10T10:30:30.378Z,9.70
2023-04-10T10:32:59.594Z,8.85
2023-04-10T10:35:29.607Z,9.88
2023-04-10T10:37:59.324Z,9.60
2023-04-10T10:40:32.791Z,9.00
2023-04-10T10:43:16.588Z,9.02
2023-04-10T10:45:56.393Z,9.68
2023-04-10T10:48:22.940Z,8.68
2023-04-10T10:51:02.222Z,9.50
2023-04-10T10:53:43.575Z,8.65
2023-04-10T10:56:19.267Z,10.05
2023-04-10T10:58:47.666Z,9.00
2023-04-10T11:01:14.856Z,8.68
2023-04-10T11:03:41.919Z,9.47
2023-04-10T11:06:09.940Z,9.10
2023-04-10T11:08:44.045Z,9.77
2023-04-10T11:11:16.113Z,8.73
2023-04-10T11:13:57.639Z,8.75
2023-04-10T11:16:43.913Z,8.33
2023-04-10T11:19:15.904Z,8.88
2023-04-10T11:22:07.388Z,8.65
2023-04-10T11:24:53.606Z,8.93
2023-04-10T11:27:45.034Z,9.27
2023-04-10T11:30:34.724Z,8.63
2023-04-10T11:33:03.595Z,8.52
2023-04-10T11:35:31.799Z,8.30
2023-04-10T11:38:16.176Z,9.27
2023-04-10T11:41:04.719Z,8.30
2023-04-10T11:43:32.393Z,8.07
2023-04-10T11:46:00.646Z,8.63
2023-04-10T11:48:29.275Z,8.32
2023-04-10T11:50:55.958Z,7.85
2023-04-10T11:53:22.773Z,8.10
2023-04-10T11:55:49.307Z,7.10
2023-04-10T11:58:30.668Z,6.70
2023-04-10T12:00:57.288Z,6.95
2023-04-10T12:03:41.749Z,7.32
2023-04-10T12:06:13.730Z,6.82
2023-04-10T12:08:45.250Z,6.27
2023-04-10T12:11:12.996Z,5.78
2023-04-10T12:13:39.960Z,6.40
2023-04-10T12:16:08.131Z,5.75
2023-04-10T12:18:34.767Z,5.45
2023-04-10T12:21:01.917Z,6.07
2023-04-10T12:23:29.824Z,6.05
2023-04-10T12:26:16.676Z,5.60
2023-04-10T12:28:52.520Z,5.80
2023-04-10T12:31:28.135Z,5.35
2023-04-10T12:33:57.771Z,5.20
2023-04-10T12:36:29.829Z,5.38
2023-04-10T12:38:58.186Z,7.68
2023-04-10T12:41:35.550Z,4.35
2023-04-10T12:44:13.655Z,4.68
2023-04-10T12:46:42.219Z,5.17
2023-04-10T12:49:27.003Z,4.75
2023-04-10T12:51:53.625Z,5.18
2023-04-10T12:54:31.955Z,4.40
2023-04-10T12:56:59.365Z,5.20
2023-04-10T12:59:26.619Z,5.27
2023-04-10T13:01:53.985Z,4.78
2023-04-10T13:04:21.067Z,5.10
2023-04-10T13:06:48.670Z,4.65
2023-04-10T13:09:15.916Z,5.30
2023-04-10T13:11:42.591Z,5.03
2023-04-10T13:14:09.353Z,5.32
2023-04-10T13:16:35.997Z,5.57
2023-04-10T13:19:02.857Z,5.00
2023-04-10T13:21:29.771Z,5.93
2023-04-10T13:23:56.553Z,4.73
2023-04-10T13:26:24.055Z,5.47
2023-04-10T13:28:50.785Z,5.60
2023-04-10T13:31:17.299Z,5.18
2023-04-10T13:33:48.096Z,5.25
2023-04-10T13:36:15.575Z,5.47
2023-04-10T13:38:42.548Z,6.05
2023-04-10T13:41:09.223Z,5.97
2023-04-10T13:43:36.727Z,5.40
2023-04-10T13:46:03.300Z,4.93
2023-04-10T13:48:37.542Z,5.37
2023-04-10T13:51:06.762Z,5.78
2023-04-10T13:53:33.217Z,5.32
2023-04-10T13:55:59.827Z,5.32
2023-04-10T13:58:28.569Z,5.38
2023-04-10T14:00:55.109Z,5.40
2023-04-10T14:03:21.679Z,4.95
2023-04-10T14:05:48.399Z,5.40
2023-04-10T14:08:15.869Z,4.72
2023-04-10T14:10:42.362Z,4.85
2023-04-10T14:13:09.382Z,4.90
2023-04-10T14:15:35.921Z,5.95
2023-04-10T14:18:02.592Z,5.95
2023-04-10T14:20:29.211Z,6.15
2023-04-10T14:22:55.705Z,6.90
2023-04-10T14:25:22.151Z,5.23
2023-04-10T14:27:48.614Z,5.38
2023-04-10T14:30:15.131Z,6.22
2023-04-10T14:32:41.978Z,6.07
2023-04-10T14:35:09.211Z,5.72
2023-04-10T14:37:35.944Z,7.50
2023-04-10T14:40:04.876Z,8.30
2023-04-10T14:42:31.420Z,7.18
2023-04-10T14:45:00.658Z,6.22
2023-04-10T14:47:27.267Z,7.45
2023-04-10T14:49:53.808Z,6.97
2023-04-10T14:52:20.370Z,7.03
2023-04-10T14:54:46.867Z,7.70
2023-04-10T14:57:15.159Z,6.28
2023-04-10T14:59:42.098Z,7.25
2023-04-10T15:02:08.671Z,6.63
2023-04-10T15:04:36.061Z,7.63
2023-04-10T15:07:03.243Z,8.43
2023-04-10T15:09:29.756Z,7.10
2023-04-10T15:11:56.894Z,8.75
2023-04-10T15:14:23.391Z,7.23
2023-04-10T15:16:50.945Z,7.65
2023-04-10T15:19:19.179Z,8.43
2023-04-10T15:21:45.842Z,7.80
2023-04-10T15:24:12.320Z,8.00
2023-04-10T15:26:45.042Z,8.10
2023-04-10T15:29:12.444Z,8.50
2023-04-10T15:31:39.244Z,9.70
2023-04-10T15:34:05.813Z,8.73
2023-04-10T15:36:32.571Z,8.35
2023-04-10T15:39:03.738Z,8.80
2023-04-10T15:41:33.180Z,7.43
2023-04-10T15:43:59.794Z,8.75
2023-04-10T15:46:27.025Z,9.05
2023-04-10T15:48:53.629Z,8.52
2023-04-10T15:51:20.360Z,8.27
2023-04-10T15:53:46.842Z,8.43
2023-04-10T15:56:15.937Z,8.63
2023-04-10T15:58:42.466Z,8.98
2023-04-10T16:01:08.939Z,8.93
2023-04-10T16:03:35.994Z,7.90
2023-04-10T16:06:02.792Z,8.27
2023-04-10T16:08:29.247Z,9.38
2023-04-10T16:10:56.298Z,9.00
2023-04-10T16:13:22.846Z,8.50
2023-04-10T16:15:50.222Z,10.93
2023-04-10T16:18:16.795Z,9.75
2023-04-10T16:20:43.345Z,9.20
2023-04-10T16:23:10.156Z,9.48
2023-04-10T16:25:36.720Z,11.48
2023-04-10T16:28:06.872Z,10.07
2023-04-10T16:30:36.529Z,9.15
2023-04-10T16:33:04.301Z,10.75
2023-04-10T16:35:31.087Z,9.85
2023-04-10T16:37:57.761Z,10.02
2023-04-10T16:40:27.628Z,9.00
2023-04-10T16:42:54.113Z,9.65
2023-04-10T16:45:20.644Z,13.05
2023-04-10T16:47:47.268Z,9.00
2023-04-10T16:50:13.861Z,9.10
2023-04-10T16:52:40.418Z,10.33
2023-04-10T16:55:07.338Z,10.50
2023-04-10T16:57:33.859Z,10.13
2023-04-10T17:00:00.752Z,9.80
2023-04-10T17:02:28.413Z,9.80
2023-04-10T17:04:55.767Z,10.67
2023-04-10T17:07:23.161Z,11.10
2023-04-10T17:09:49.716Z,10.30
2023-04-10T17:12:16.377Z,9.02
2023-04-10T17:14:42.982Z,10.38
2023-04-10T17:17:09.587Z,11.00
2023-04-10T17:19:36.101Z,10.35
2023-04-10T17:22:02.846Z,8.70
2023-04-10T17:24:31.463Z,8.52
2023-04-10T17:26:58.260Z,8.80
2023-04-10T17:29:25.754Z,8.90
2023-04-10T17:31:52.304Z,8.48
2023-04-10T17:34:18.801Z,7.40
2023-04-10T17:36:45.246Z,8.35
2023-04-10T17:39:11.711Z,9.10
2023-04-10T17:41:38.185Z,10.20
2023-04-10T17:44:05.529Z,9.35
2023-04-10T17:46:32.025Z,10.20
2023-04-10T17:49:01.495Z,10.13
2023-04-10T17:51:28.344Z,10.00
2023-04-10T17:53:57.692Z,11.03
2023-04-10T17:56:24.157Z,9.95
2023-04-10T17:58:53.097Z,10.20
2023-04-10T18:01:25.731Z,9.10
2023-04-10T18:03:52.380Z,9.70
2023-04-10T18:06:19.411Z,9.90
2023-04-10T18:08:46.017Z,9.50
2023-04-10T18:11:12.527Z,8.40
2023-04-10T18:13:38.987Z,8.65
2023-04-10T18:16:05.957Z,8.70
2023-04-10T18:18:34.433Z,8.03
2023-04-10T18:21:08.661Z,7.03
2023-04-10T18:23:35.355Z,8.50
2023-04-10T18:26:03.006Z,6.72
2023-04-10T18:28:29.882Z,7.30
2023-04-10T18:30:59.567Z,7.00
2023-04-10T18:33:26.524Z,5.68
2023-04-10T18:35:57.091Z,6.63
2023-04-10T18:38:27.169Z,6.32
2023-04-10T18:40:57.623Z,7.10
2023-04-10T18:43:27.856Z,5.93
2023-04-10T18:45:55.178Z,5.75
2023-04-10T18:48:21.904Z,6.90
2023-04-10T18:50:52.224Z,6.25
2023-04-10T18:53:19.225Z,7.22
2023-04-10T18:55:52.755Z,6.40
2023-04-10T18:58:21.242Z,7.00
2023-04-10T19:00:48.382Z,7.60
2023-04-10T19:03:14.967Z,6.38
2023-04-10T19:05:42.391Z,7.75
2023-04-10T19:08:08.960Z,8.37
2023-04-10T19:10:37.551Z,9.52
2023-04-10T19:13:04.003Z,7.72
2023-04-10T19:15:30.620Z,8.63
2023-04-10T19:17:57.215Z,8.77
2023-04-10T19:20:50.585Z,8.10
2023-04-10T19:23:11.157Z,7.43
2023-04-10T19:25:37.685Z,7.13
2023-04-10T19:28:04.823Z,8.57
2023-04-10T19:30:31.885Z,8.93
2023-04-10T19:32:58.591Z,7.40
2023-04-10T19:35:25.175Z,7.38
2023-04-10T19:37:51.629Z,7.63
2023-04-10T19:40:19.284Z,9.93
2023-04-10T19:42:45.977Z,7.45
2023-04-10T19:45:12.798Z,8.00
2023-04-10T19:47:39.492Z,7.55
2023-04-10T19:50:06.547Z,8.38
2023-04-10T19:52:32.998Z,7.30
2023-04-10T19:54:59.537Z,9.27
2023-04-10T19:57:26.037Z,8.30
2023-04-10T19:59:52.584Z,10.43
2023-04-10T20:02:19.190Z,8.40
2023-04-10T20:04:48.539Z,7.32
2023-04-10T20:07:15.372Z,8.25
2023-04-10T20:09:41.908Z,7.93
2023-04-10T20:12:09.182Z,7.25
2023-04-10T20:14:35.635Z,7.97
2023-04-10T20:17:02.134Z,8.45
2023-04-10T20:19:28.600Z,9.13
2023-04-10T20:21:55.279Z,8.63
2023-04-10T20:24:21.752Z,8.57
2023-04-10T20:26:48.265Z,8.38
2023-04-10T20:29:14.734Z,7.43
2023-04-10T20:31:41.367Z,7.75
2023-04-10T20:34:07.814Z,6.90
2023-04-10T20:36:34.986Z,9.90
2023-04-10T20:39:01.463Z,8.00
2023-04-10T20:41:28.394Z,9.23
2023-04-10T20:43:55.859Z,9.07
2023-04-10T20:46:22.563Z,8.20
2023-04-10T20:48:49.100Z,8.50
2023-04-10T20:51:15.558Z,6.75
2023-04-10T20:53:41.991Z,8.23
2023-04-10T20:56:08.844Z,11.52
2023-04-10T20:58:35.302Z,9.20
2023-04-10T21:01:01.934Z,7.13
2023-04-10T21:03:29.710Z,8.63
2023-04-10T21:05:56.436Z,8.63
2023-04-10T21:08:22.952Z,8.38
2023-04-10T21:10:49.524Z,8.33
2023-04-10T21:13:16.110Z,8.15
2023-04-10T21:15:43.007Z,12.98
2023-04-10T21:18:09.793Z,8.38
2023-04-10T21:20:36.795Z,8.02
2023-04-10T21:23:03.274Z,8.77
2023-04-10T21:25:31.840Z,10.75
2023-04-10T21:27:58.371Z,13.98
2023-04-10T21:30:24.833Z,11.00
2023-04-10T21:32:51.454Z,9.48
2023-04-10T21:35:18.179Z,10.27
2023-04-10T21:37:44.690Z,11.43
2023-04-10T21:40:11.390Z,8.60
2023-04-10T21:42:38.838Z,8.98
2023-04-10T21:45:06.474Z,11.45
2023-04-10T21:47:32.949Z,8.33
2023-04-10T21:49:59.391Z,10.38
2023-04-10T21:52:25.859Z,11.63
2023-04-10T21:54:52.348Z,8.43
2023-04-10T21:57:18.780Z,8.90
2023-04-10T21:59:45.275Z,9.87
2023-04-10T22:02:12.801Z,10.63
2023-04-10T22:04:47.956Z,12.57
2023-04-10T22:07:21.057Z,14.65
2023-04-10T22:09:47.575Z,11.68
2023-04-10T22:12:14.161Z,14.03
2023-04-10T22:14:41.304Z,10.88
2023-04-10T22:17:07.995Z,8.60
2023-04-10T22:19:34.590Z,16.27
2023-04-10T22:22:01.027Z,11.57
2023-04-10T22:24:27.517Z,11.73
2023-04-10T22:26:53.992Z,9.98
2023-04-10T22:29:20.453Z,19.58
2023-04-10T22:31:46.916Z,10.10
2023-04-10T22:34:13.427Z,5.10
2023-04-10T22:36:40.100Z,5.07
2023-04-10T22:39:06.562Z,5.90
2023-04-10T22:41:33.070Z,5.15
2023-04-10T22:43:59.865Z,5.22
2023-04-10T22:46:26.388Z,5.13
2023-04-10T22:48:54.809Z,5.40
2023-04-10T22:51:21.388Z,5.53
2023-04-10T22:53:47.830Z,6.78
2023-04-10T22:56:14.445Z,5.28
2023-04-10T22:58:41.089Z,5.90
2023-04-10T23:01:08.318Z,5.10
2023-04-10T23:03:35.472Z,5.65
2023-04-10T23:06:02.451Z,7.78
2023-04-10T23:08:28.999Z,6.80
2023-04-10T23:10:55.741Z,6.13
2023-04-10T23:13:22.533Z,5.60
2023-04-10T23:15:53.780Z,5.10
2023-04-10T23:18:20.591Z,5.88
2023-04-10T23:20:47.994Z,5.63
2023-04-10T23:23:15.519Z,6.30
2023-04-10T23:25:42.491Z,4.70
2023-04-10T23:28:08.986Z,6.70
2023-04-10T23:30:39.149Z,5.82
2023-04-10T23:33:05.670Z,10.75
2023-04-10T23:35:32.302Z,6.88
2023-04-10T23:37:58.762Z,7.73
2023-04-10T23:40:25.319Z,10.98
2023-04-10T23:42:51.757Z,27.92
2023-04-10T23:45:18.303Z,6.32
2023-04-10T23:47:44.758Z,26.98
2023-04-10T23:50:11.374Z,18.83
2023-04-10T23:52:37.817Z,20.60
2023-04-10T23:55:04.742Z,27.05
2023-04-10T23:57:31.234Z,20.10
2023-04-10T23:59:57.682Z,17.83
